sensor_id;sensor_type;location;lat;lon;timestamp;pressure;altitude;pressure_sealevel;temperature;humidity
52651;BME280;38537;47.226;39.702;2022-12-18T00:01:41;100950.88;;;14.53;55.42
52651;BME280;38537;47.226;39.702;2022-12-18T00:04:20;100954.91;;;14.61;55.00
52651;BME280;38537;47.226;39.702;2022-12-18T00:06:49;100941.94;;;14.51;55.24
52651;BME280;38537;47.226;39.702;2022-12-18T00:09:16;100934.50;;;14.47;55.15
52651;BME280;38537;47.226;39.702;2022-12-18T00:11:44;100938.97;;;14.48;54.94
52651;BME280;38537;47.226;39.702;2022-12-18T00:14:13;100954.41;;;14.59;55.12
52651;BME280;38537;47.226;39.702;2022-12-18T00:16:44;100935.13;;;14.44;54.76
52651;BME280;38537;47.226;39.702;2022-12-18T00:19:12;100941.63;;;14.53;54.93
52651;BME280;38537;47.226;39.702;2022-12-18T00:21:39;100914.13;;;14.41;54.85
52651;BME280;38537;47.226;39.702;2022-12-18T00:24:09;100945.25;;;14.53;54.47
52651;BME280;38537;47.226;39.702;2022-12-18T00:26:38;100947.75;;;14.55;54.42
52651;BME280;38537;47.226;39.702;2022-12-18T00:29:09;100938.97;;;14.48;54.26
52651;BME280;38537;47.226;39.702;2022-12-18T00:31:38;100944.75;;;14.51;54.51
52651;BME280;38537;47.226;39.702;2022-12-18T00:34:05;100941.09;;;14.51;54.61
52651;BME280;38537;47.226;39.702;2022-12-18T00:36:34;100941.25;;;14.46;54.63
52651;BME280;38537;47.226;39.702;2022-12-18T00:39:04;100940.44;;;14.45;54.54
52651;BME280;38537;47.226;39.702;2022-12-18T00:41:32;100929.22;;;14.31;54.50
52651;BME280;38537;47.226;39.702;2022-12-18T00:44:18;100923.22;;;14.24;54.68
52651;BME280;38537;47.226;39.702;2022-12-18T00:46:47;100944.91;;;14.32;54.61
52651;BME280;38537;47.226;39.702;2022-12-18T00:49:17;100919.59;;;14.24;54.84
52651;BME280;38537;47.226;39.702;2022-12-18T00:51:46;100903.25;;;14.26;54.82
52651;BME280;38537;47.226;39.702;2022-12-18T00:54:14;100917.16;;;14.31;54.72
52651;BME280;38537;47.226;39.702;2022-12-18T00:56:42;100931.81;;;14.42;54.63
52651;BME280;38537;47.226;39.702;2022-12-18T00:59:17;100904.09;;;14.26;54.37
52651;BME280;38537;47.226;39.702;2022-12-18T01:01:45;100932.19;;;14.49;54.38
52651;BME280;38537;47.226;39.702;2022-12-18T01:04:14;100917.03;;;14.36;54.19
52651;BME280;38537;47.226;39.702;2022-12-18T01:06:44;100923.88;;;14.44;54.11
52651;BME280;38537;47.226;39.702;2022-12-18T01:09:12;100936.84;;;14.53;54.24
52651;BME280;38537;47.226;39.702;2022-12-18T01:11:39;100938.31;;;14.51;54.32
52651;BME280;38537;47.226;39.702;2022-12-18T01:14:07;100919.28;;;14.48;54.36
52651;BME280;38537;47.226;39.702;2022-12-18T01:16:36;100927.06;;;14.51;53.98
52651;BME280;38537;47.226;39.702;2022-12-18T01:19:04;100922.94;;;14.48;54.22
52651;BME280;38537;47.226;39.702;2022-12-18T01:21:32;100920.97;;;14.49;54.10
52651;BME280;38537;47.226;39.702;2022-12-18T01:24:04;100905.97;;;14.39;53.76
52651;BME280;38537;47.226;39.702;2022-12-18T01:26:33;100918.63;;;14.51;53.82
52651;BME280;38537;47.226;39.702;2022-12-18T01:29:00;100927.75;;;14.56;53.97
52651;BME280;38537;47.226;39.702;2022-12-18T01:31:33;100927.94;;;14.60;53.74
52651;BME280;38537;47.226;39.702;2022-12-18T01:34:02;100932.09;;;14.62;53.75
52651;BME280;38537;47.226;39.702;2022-12-18T01:36:35;100918.56;;;14.64;53.78
52651;BME280;38537;47.226;39.702;2022-12-18T01:39:06;100917.53;;;14.60;53.44
52651;BME280;38537;47.226;39.702;2022-12-18T01:41:34;100898.47;;;14.49;53.73
52651;BME280;38537;47.226;39.702;2022-12-18T01:50:30;100916.25;;;14.66;53.30
52651;BME280;38537;47.226;39.702;2022-12-18T01:53:02;100910.13;;;14.64;53.54
52651;BME280;38537;47.226;39.702;2022-12-18T01:55:34;100906.16;;;14.65;53.44
52651;BME280;38537;47.226;39.702;2022-12-18T01:58:03;100902.06;;;14.71;53.27
52651;BME280;38537;47.226;39.702;2022-12-18T02:00:31;100895.44;;;14.67;53.36
52651;BME280;38537;47.226;39.702;2022-12-18T02:02:58;100914.50;;;14.79;53.48
52651;BME280;38537;47.226;39.702;2022-12-18T02:05:49;100904.59;;;14.82;52.86
52651;BME280;38537;47.226;39.702;2022-12-18T02:08:46;100896.97;;;14.82;52.73
52651;BME280;38537;47.226;39.702;2022-12-18T02:11:24;100905.28;;;14.87;52.77
52651;BME280;38537;47.226;39.702;2022-12-18T02:20:16;100889.59;;;14.95;52.79
52651;BME280;38537;47.226;39.702;2022-12-18T02:31:27;100853.63;;;14.74;52.63
52651;BME280;38537;47.226;39.702;2022-12-18T02:34:00;100879.53;;;14.94;52.28
52651;BME280;38537;47.226;39.702;2022-12-18T02:36:34;100869.25;;;14.89;52.55
52651;BME280;38537;47.226;39.702;2022-12-18T02:39:05;100876.84;;;14.89;52.46
52651;BME280;38537;47.226;39.702;2022-12-18T02:41:38;100859.78;;;14.85;52.48
52651;BME280;38537;47.226;39.702;2022-12-18T02:44:13;100871.72;;;14.91;52.23
52651;BME280;38537;47.226;39.702;2022-12-18T02:46:48;100876.72;;;14.94;52.05
52651;BME280;38537;47.226;39.702;2022-12-18T02:49:21;100873.06;;;14.93;52.51
52651;BME280;38537;47.226;39.702;2022-12-18T02:57:58;100842.22;;;14.71;52.16
52651;BME280;38537;47.226;39.702;2022-12-18T03:00:39;100870.91;;;14.90;52.60
52651;BME280;38537;47.226;39.702;2022-12-18T03:03:22;100869.41;;;14.93;52.29
52651;BME280;38537;47.226;39.702;2022-12-18T03:06:45;100856.47;;;14.83;52.30
52651;BME280;38537;47.226;39.702;2022-12-18T03:08:50;100865.28;;;14.90;52.15
52651;BME280;38537;47.226;39.702;2022-12-18T03:11:28;100863.44;;;14.86;52.34
52651;BME280;38537;47.226;39.702;2022-12-18T03:14:17;100862.78;;;14.89;52.26
52651;BME280;38537;47.226;39.702;2022-12-18T03:16:52;100861.44;;;14.86;52.35
52651;BME280;38537;47.226;39.702;2022-12-18T03:19:23;100875.88;;;14.93;52.13
52651;BME280;38537;47.226;39.702;2022-12-18T03:21:59;100858.63;;;14.86;52.04
52651;BME280;38537;47.226;39.702;2022-12-18T03:24:36;100867.59;;;14.97;52.27
52651;BME280;38537;47.226;39.702;2022-12-18T03:27:13;100868.41;;;14.97;51.82
52651;BME280;38537;47.226;39.702;2022-12-18T03:29:51;100877.88;;;15.01;51.84
52651;BME280;38537;47.226;39.702;2022-12-18T03:32:29;100872.56;;;14.91;52.04
52651;BME280;38537;47.226;39.702;2022-12-18T03:35:03;100876.00;;;14.88;52.14
52651;BME280;38537;47.226;39.702;2022-12-18T03:37:35;100879.66;;;14.89;52.03
52651;BME280;38537;47.226;39.702;2022-12-18T03:40:05;100883.81;;;14.91;51.86
52651;BME280;38537;47.226;39.702;2022-12-18T03:42:53;100896.38;;;14.94;51.86
52651;BME280;38537;47.226;39.702;2022-12-18T03:45:34;100905.94;;;14.84;52.04
52651;BME280;38537;47.226;39.702;2022-12-18T03:48:38;100900.69;;;14.91;52.06
52651;BME280;38537;47.226;39.702;2022-12-18T03:51:37;100882.03;;;14.73;52.00
52651;BME280;38537;47.226;39.702;2022-12-18T03:54:07;100872.44;;;14.65;52.51
52651;BME280;38537;47.226;39.702;2022-12-18T03:56:46;100887.19;;;14.71;52.47
52651;BME280;38537;47.226;39.702;2022-12-18T03:59:16;100871.75;;;14.60;52.53
52651;BME280;38537;47.226;39.702;2022-12-18T04:01:47;100885.97;;;14.63;52.68
52651;BME280;38537;47.226;39.702;2022-12-18T04:04:17;100901.38;;;14.66;52.53
52651;BME280;38537;47.226;39.702;2022-12-18T04:06:47;100893.72;;;14.58;52.91
52651;BME280;38537;47.226;39.702;2022-12-18T04:09:19;100889.22;;;14.48;52.74
52651;BME280;38537;47.226;39.702;2022-12-18T04:11:47;100886.09;;;14.50;52.67
52651;BME280;38537;47.226;39.702;2022-12-18T04:14:15;100906.94;;;14.57;52.81
52651;BME280;38537;47.226;39.702;2022-12-18T04:16:48;100904.09;;;14.49;52.86
52651;BME280;38537;47.226;39.702;2022-12-18T04:19:18;100888.00;;;14.40;53.06
52651;BME280;38537;47.226;39.702;2022-12-18T04:21:49;100904.25;;;14.52;52.81
52651;BME280;38537;47.226;39.702;2022-12-18T04:24:16;100913.59;;;14.61;52.75
52651;BME280;38537;47.226;39.702;2022-12-18T04:27:01;100895.66;;;14.49;52.77
52651;BME280;38537;47.226;39.702;2022-12-18T04:29:33;100919.34;;;14.56;52.80
52651;BME280;38537;47.226;39.702;2022-12-18T04:32:00;100919.19;;;14.61;52.59
52651;BME280;38537;47.226;39.702;2022-12-18T04:34:29;100933.06;;;14.58;52.47
52651;BME280;38537;47.226;39.702;2022-12-18T04:36:57;100913.47;;;14.44;52.57
52651;BME280;38537;47.226;39.702;2022-12-18T04:39:25;100915.47;;;14.44;53.00
52651;BME280;38537;47.226;39.702;2022-12-18T04:42:00;100904.09;;;14.26;53.02
52651;BME280;38537;47.226;39.702;2022-12-18T04:44:28;100927.53;;;14.44;52.95
52651;BME280;38537;47.226;39.702;2022-12-18T04:46:55;100922.31;;;14.37;52.93
52651;BME280;38537;47.226;39.702;2022-12-18T04:49:22;100928.38;;;14.45;52.54
52651;BME280;38537;47.226;39.702;2022-12-18T04:51:50;100929.09;;;14.14;52.99
52651;BME280;38537;47.226;39.702;2022-12-18T04:54:21;100941.47;;;14.13;53.04
52651;BME280;38537;47.226;39.702;2022-12-18T04:56:49;100928.47;;;14.17;52.74
52651;BME280;38537;47.226;39.702;2022-12-18T04:59:16;100926.03;;;14.24;53.11
52651;BME280;38537;47.226;39.702;2022-12-18T05:01:43;100923.88;;;14.21;53.19
52651;BME280;38537;47.226;39.702;2022-12-18T05:04:11;100913.97;;;14.24;53.21
52651;BME280;38537;47.226;39.702;2022-12-18T05:06:38;100937.13;;;14.29;52.99
52651;BME280;38537;47.226;39.702;2022-12-18T05:09:05;100914.16;;;14.27;53.01
52651;BME280;38537;47.226;39.702;2022-12-18T05:11:32;100928.63;;;13.98;53.18
52651;BME280;38537;47.226;39.702;2022-12-18T05:14:04;100932.28;;;13.99;53.44
52651;BME280;38537;47.226;39.702;2022-12-18T05:16:31;100945.41;;;13.90;53.38
52651;BME280;38537;47.226;39.702;2022-12-18T05:18:58;100940.06;;;14.02;53.46
52651;BME280;38537;47.226;39.702;2022-12-18T05:21:26;100944.84;;;14.01;53.49
52651;BME280;38537;47.226;39.702;2022-12-18T05:23:55;100944.91;;;14.10;53.48
52651;BME280;38537;47.226;39.702;2022-12-18T05:26:22;100949.91;;;14.13;53.43
52651;BME280;38537;47.226;39.702;2022-12-18T05:28:49;100965.38;;;13.88;53.42
52651;BME280;38537;47.226;39.702;2022-12-18T05:31:17;100939.56;;;13.50;53.87
52651;BME280;38537;47.226;39.702;2022-12-18T05:33:44;100961.19;;;13.36;54.16
52651;BME280;38537;47.226;39.702;2022-12-18T05:36:12;100952.69;;;13.41;54.80
52651;BME280;38537;47.226;39.702;2022-12-18T05:38:39;100975.53;;;13.48;55.06
52651;BME280;38537;47.226;39.702;2022-12-18T05:41:08;100979.16;;;13.49;54.96
52651;BME280;38537;47.226;39.702;2022-12-18T05:43:37;100980.72;;;13.27;54.92
52651;BME280;38537;47.226;39.702;2022-12-18T05:46:08;100962.59;;;12.92;55.59
52651;BME280;38537;47.226;39.702;2022-12-18T05:48:38;100980.88;;;12.90;55.91
52651;BME280;38537;47.226;39.702;2022-12-18T05:51:08;100975.63;;;12.69;56.49
52651;BME280;38537;47.226;39.702;2022-12-18T05:53:36;100974.38;;;12.62;56.72
52651;BME280;38537;47.226;39.702;2022-12-18T05:56:07;100979.38;;;12.79;56.78
52651;BME280;38537;47.226;39.702;2022-12-18T05:58:34;100969.19;;;12.69;56.97
52651;BME280;38537;47.226;39.702;2022-12-18T06:01:16;100981.31;;;12.64;56.92
52651;BME280;38537;47.226;39.702;2022-12-18T06:03:44;100991.84;;;12.73;57.06
52651;BME280;38537;47.226;39.702;2022-12-18T06:06:15;100975.44;;;12.80;56.97
52651;BME280;38537;47.226;39.702;2022-12-18T06:08:42;100981.50;;;13.00;57.05
52651;BME280;38537;47.226;39.702;2022-12-18T06:11:15;100989.81;;;12.92;56.59
52651;BME280;38537;47.226;39.702;2022-12-18T06:13:42;100992.22;;;12.66;57.37
52651;BME280;38537;47.226;39.702;2022-12-18T06:16:09;100982.25;;;12.60;57.67
52651;BME280;38537;47.226;39.702;2022-12-18T06:18:37;100984.03;;;12.37;58.00
52651;BME280;38537;47.226;39.702;2022-12-18T06:21:05;100988.13;;;12.45;57.72
52651;BME280;38537;47.226;39.702;2022-12-18T06:23:32;100991.59;;;12.55;58.24
52651;BME280;38537;47.226;39.702;2022-12-18T06:26:06;100989.94;;;12.68;58.38
52651;BME280;38537;47.226;39.702;2022-12-18T06:28:34;100978.75;;;12.82;57.78
52651;BME280;38537;47.226;39.702;2022-12-18T06:31:03;100993.34;;;12.97;57.49
52651;BME280;38537;47.226;39.702;2022-12-18T06:33:31;100988.06;;;13.10;57.15
52651;BME280;38537;47.226;39.702;2022-12-18T06:36:01;100968.13;;;12.97;57.13
52651;BME280;38537;47.226;39.702;2022-12-18T06:38:29;100999.78;;;13.12;57.15
52651;BME280;38537;47.226;39.702;2022-12-18T06:40:56;100993.13;;;12.94;57.45
52651;BME280;38537;47.226;39.702;2022-12-18T06:43:24;100983.16;;;13.01;57.39
52651;BME280;38537;47.226;39.702;2022-12-18T06:45:51;100992.91;;;13.04;57.17
52651;BME280;38537;47.226;39.702;2022-12-18T06:48:19;100977.09;;;12.81;57.94
52651;BME280;38537;47.226;39.702;2022-12-18T06:50:47;101000.56;;;12.85;57.91
52651;BME280;38537;47.226;39.702;2022-12-18T06:53:14;100997.00;;;12.65;57.71
52651;BME280;38537;47.226;39.702;2022-12-18T06:55:41;100988.97;;;12.59;58.37
52651;BME280;38537;47.226;39.702;2022-12-18T06:58:09;101006.38;;;12.75;58.33
52651;BME280;38537;47.226;39.702;2022-12-18T07:00:37;101018.41;;;12.75;58.53
52651;BME280;38537;47.226;39.702;2022-12-18T07:03:04;101008.38;;;12.88;58.32
52651;BME280;38537;47.226;39.702;2022-12-18T07:05:32;101024.28;;;12.92;58.53
52651;BME280;38537;47.226;39.702;2022-12-18T07:07:59;101024.69;;;12.99;58.35
52651;BME280;38537;47.226;39.702;2022-12-18T07:10:26;101024.06;;;13.02;58.22
52651;BME280;38537;47.226;39.702;2022-12-18T07:12:54;100996.03;;;12.89;58.18
52651;BME280;38537;47.226;39.702;2022-12-18T07:15:21;101014.00;;;13.01;58.22
52651;BME280;38537;47.226;39.702;2022-12-18T07:17:49;101024.81;;;12.94;58.51
52651;BME280;38537;47.226;39.702;2022-12-18T07:20:16;101019.06;;;12.86;59.30
52651;BME280;38537;47.226;39.702;2022-12-18T07:22:43;101029.88;;;12.92;59.38
52651;BME280;38537;47.226;39.702;2022-12-18T07:25:11;100950.69;;;12.54;59.38
52651;BME280;38537;47.226;39.702;2022-12-18T07:27:38;101004.22;;;12.85;59.50
52651;BME280;38537;47.226;39.702;2022-12-18T07:30:06;101028.81;;;12.88;59.96
52651;BME280;38537;47.226;39.702;2022-12-18T07:32:34;101025.50;;;12.86;59.76
52651;BME280;38537;47.226;39.702;2022-12-18T07:35:01;101030.50;;;12.89;59.94
52651;BME280;38537;47.226;39.702;2022-12-18T07:37:29;101024.28;;;12.92;60.17
52651;BME280;38537;47.226;39.702;2022-12-18T07:39:56;101026.31;;;12.87;60.50
52651;BME280;38537;47.226;39.702;2022-12-18T07:42:23;101001.78;;;12.65;61.11
52651;BME280;38537;47.226;39.702;2022-12-18T07:45:00;101024.19;;;12.65;61.35
52651;BME280;38537;47.226;39.702;2022-12-18T07:47:29;101009.84;;;12.53;61.96
52651;BME280;38537;47.226;39.702;2022-12-18T07:49:57;101013.66;;;12.57;61.77
52651;BME280;38537;47.226;39.702;2022-12-18T07:52:25;101030.75;;;12.74;62.42
52651;BME280;38537;47.226;39.702;2022-12-18T07:54:53;101003.59;;;12.56;63.22
52651;BME280;38537;47.226;39.702;2022-12-18T07:57:20;101034.56;;;12.64;63.15
52651;BME280;38537;47.226;39.702;2022-12-18T08:00:08;101028.19;;;12.59;63.85
52651;BME280;38537;47.226;39.702;2022-12-18T08:02:38;101021.03;;;12.85;63.10
52651;BME280;38537;47.226;39.702;2022-12-18T08:05:08;101036.88;;;13.09;64.10
52651;BME280;38537;47.226;39.702;2022-12-18T08:07:35;101022.47;;;13.29;63.08
52651;BME280;38537;47.226;39.702;2022-12-18T08:10:03;101015.31;;;13.23;63.73
52651;BME280;38537;47.226;39.702;2022-12-18T08:12:32;101004.50;;;13.16;63.36
52651;BME280;38537;47.226;39.702;2022-12-18T08:15:02;101019.59;;;13.34;63.61
52651;BME280;38537;47.226;39.702;2022-12-18T08:17:30;101023.94;;;13.54;62.46
52651;BME280;38537;47.226;39.702;2022-12-18T08:19:57;101021.75;;;13.64;62.38
52651;BME280;38537;47.226;39.702;2022-12-18T08:22:25;101032.34;;;13.67;62.97
52651;BME280;38537;47.226;39.702;2022-12-18T08:24:52;101029.03;;;13.65;63.06
52651;BME280;38537;47.226;39.702;2022-12-18T08:27:19;101021.56;;;13.47;63.99
52651;BME280;38537;47.226;39.702;2022-12-18T08:29:56;101013.75;;;13.30;65.24
52651;BME280;38537;47.226;39.702;2022-12-18T08:32:25;101015.03;;;13.38;65.16
52651;BME280;38537;47.226;39.702;2022-12-18T08:34:53;101022.16;;;13.44;65.12
52651;BME280;38537;47.226;39.702;2022-12-18T08:37:21;101010.66;;;13.59;63.64
52651;BME280;38537;47.226;39.702;2022-12-18T08:39:48;100989.13;;;13.55;63.52
52651;BME280;38537;47.226;39.702;2022-12-18T08:42:16;101010.22;;;13.80;62.93
52651;BME280;38537;47.226;39.702;2022-12-18T08:45:03;100994.97;;;13.58;63.96
52651;BME280;38537;47.226;39.702;2022-12-18T08:47:30;101009.59;;;13.69;63.86
52651;BME280;38537;47.226;39.702;2022-12-18T08:49:58;100999.28;;;13.64;63.70
52651;BME280;38537;47.226;39.702;2022-12-18T08:52:25;100981.66;;;13.50;64.28
52651;BME280;38537;47.226;39.702;2022-12-18T08:54:52;100994.19;;;13.66;63.73
52651;BME280;38537;47.226;39.702;2022-12-18T08:57:19;101002.34;;;13.41;64.96
52651;BME280;38537;47.226;39.702;2022-12-18T08:59:47;101007.53;;;13.20;65.42
52651;BME280;38537;47.226;39.702;2022-12-18T09:02:15;101000.41;;;13.09;65.61
52651;BME280;38537;47.226;39.702;2022-12-18T09:04:42;100999.34;;;12.58;66.77
52651;BME280;38537;47.226;39.702;2022-12-18T09:07:12;100990.94;;;12.58;67.53
52651;BME280;38537;47.226;39.702;2022-12-18T09:09:51;101014.28;;;12.86;67.13
52651;BME280;38537;47.226;39.702;2022-12-18T09:12:39;101018.22;;;12.85;66.41
52651;BME280;38537;47.226;39.702;2022-12-18T09:15:07;101014.19;;;12.91;66.29
52651;BME280;38537;47.226;39.702;2022-12-18T09:17:34;101016.78;;;12.88;66.07
52651;BME280;38537;47.226;39.702;2022-12-18T09:20:02;101012.66;;;12.66;66.93
52651;BME280;38537;47.226;39.702;2022-12-18T09:22:30;101004.28;;;12.80;65.94
52651;BME280;38537;47.226;39.702;2022-12-18T09:24:58;100997.00;;;12.98;65.71
52651;BME280;38537;47.226;39.702;2022-12-18T09:27:38;100976.91;;;12.77;66.62
52651;BME280;38537;47.226;39.702;2022-12-18T09:30:06;100979.97;;;12.62;66.06
52651;BME280;38537;47.226;39.702;2022-12-18T09:32:34;100985.47;;;12.67;66.30
52651;BME280;38537;47.226;39.702;2022-12-18T09:35:02;100986.22;;;12.40;67.00
52651;BME280;38537;47.226;39.702;2022-12-18T09:37:29;100992.13;;;12.39;67.33
52651;BME280;38537;47.226;39.702;2022-12-18T09:39:56;100976.75;;;12.36;66.78
52651;BME280;38537;47.226;39.702;2022-12-18T09:42:24;100983.91;;;12.61;66.70
52651;BME280;38537;47.226;39.702;2022-12-18T09:44:53;100983.19;;;12.55;66.30
52651;BME280;38537;47.226;39.702;2022-12-18T09:47:23;100989.41;;;12.52;66.25
52651;BME280;38537;47.226;39.702;2022-12-18T09:49:57;100995.03;;;12.33;67.44
52651;BME280;38537;47.226;39.702;2022-12-18T09:52:32;100995.84;;;12.15;67.79
52651;BME280;38537;47.226;39.702;2022-12-18T09:57:45;100992.75;;;11.98;68.38
52651;BME280;38537;47.226;39.702;2022-12-18T10:00:16;101011.00;;;11.95;67.88
52651;BME280;38537;47.226;39.702;2022-12-18T10:02:45;100992.94;;;11.64;68.67
52651;BME280;38537;47.226;39.702;2022-12-18T10:05:16;101002.75;;;12.04;67.78
52651;BME280;38537;47.226;39.702;2022-12-18T10:07:57;101013.28;;;12.31;67.07
52651;BME280;38537;47.226;39.702;2022-12-18T10:16:12;101029.84;;;12.27;67.08
52651;BME280;38537;47.226;39.702;2022-12-18T10:22:02;101012.72;;;11.91;68.18
52651;BME280;38537;47.226;39.702;2022-12-18T10:27:18;100991.91;;;11.36;69.73
52651;BME280;38537;47.226;39.702;2022-12-18T10:29:49;100976.25;;;11.11;70.67
52651;BME280;38537;47.226;39.702;2022-12-18T10:32:21;100985.50;;;11.07;71.08
52651;BME280;38537;47.226;39.702;2022-12-18T10:34:52;100983.25;;;11.09;71.93
52651;BME280;38537;47.226;39.702;2022-12-18T10:37:29;100963.63;;;10.90;71.87
52651;BME280;38537;47.226;39.702;2022-12-18T10:40:13;100985.31;;;11.03;72.87
52651;BME280;38537;47.226;39.702;2022-12-18T10:43:12;100984.28;;;10.94;72.93
52651;BME280;38537;47.226;39.702;2022-12-18T10:45:41;100978.31;;;10.77;72.39
52651;BME280;38537;47.226;39.702;2022-12-18T10:48:19;100979.97;;;10.78;73.67
52651;BME280;38537;47.226;39.702;2022-12-18T10:50:49;100927.19;;;10.47;72.96
52651;BME280;38537;47.226;39.702;2022-12-18T10:53:40;100972.09;;;10.56;73.01
52651;BME280;38537;47.226;39.702;2022-12-18T10:56:08;100976.88;;;10.50;73.06
52651;BME280;38537;47.226;39.702;2022-12-18T10:58:38;100940.97;;;10.39;73.48
52651;BME280;38537;47.226;39.702;2022-12-18T11:01:17;100967.47;;;10.41;74.90
52651;BME280;38537;47.226;39.702;2022-12-18T11:06:28;100979.44;;;10.42;74.08
52651;BME280;38537;47.226;39.702;2022-12-18T11:09:03;100976.66;;;10.42;74.81
52651;BME280;38537;47.226;39.702;2022-12-18T11:11:40;100990.63;;;10.42;74.25
52651;BME280;38537;47.226;39.702;2022-12-18T11:14:27;101012.50;;;10.63;74.60
52651;BME280;38537;47.226;39.702;2022-12-18T11:16:56;100991.34;;;10.57;73.46
52651;BME280;38537;47.226;39.702;2022-12-18T11:19:52;101007.78;;;10.88;73.71
52651;BME280;38537;47.226;39.702;2022-12-18T11:22:28;100985.28;;;10.79;72.86
52651;BME280;38537;47.226;39.702;2022-12-18T11:25:22;101013.47;;;11.07;73.08
52651;BME280;38537;47.226;39.702;2022-12-18T11:28:05;101001.88;;;10.94;73.07
52651;BME280;38537;47.226;39.702;2022-12-18T11:30:35;101002.66;;;11.00;72.50
52651;BME280;38537;47.226;39.702;2022-12-18T11:38:17;100999.44;;;11.12;71.87
52651;BME280;38537;47.226;39.702;2022-12-18T11:41:00;100990.06;;;11.03;71.51
52651;BME280;38537;47.226;39.702;2022-12-18T11:46:43;100971.06;;;10.42;72.79
52651;BME280;38537;47.226;39.702;2022-12-18T11:49:26;101002.72;;;10.32;72.89
52651;BME280;38537;47.226;39.702;2022-12-18T11:52:02;100994.47;;;10.12;73.71
52651;BME280;38537;47.226;39.702;2022-12-18T11:54:31;101011.63;;;9.90;73.81
52651;BME280;38537;47.226;39.702;2022-12-18T11:57:09;100970.47;;;9.72;74.86
52651;BME280;38537;47.226;39.702;2022-12-18T12:02:42;101019.91;;;10.05;75.99
52651;BME280;38537;47.226;39.702;2022-12-18T12:07:54;101007.88;;;9.60;75.66
52651;BME280;38537;47.226;39.702;2022-12-18T12:10:43;101022.94;;;9.59;76.38
52651;BME280;38537;47.226;39.702;2022-12-18T12:16:17;101024.22;;;9.77;76.76
52651;BME280;38537;47.226;39.702;2022-12-18T12:27:33;101051.34;;;9.72;75.95
52651;BME280;38537;47.226;39.702;2022-12-18T12:30:20;101056.91;;;9.72;76.48
52651;BME280;38537;47.226;39.702;2022-12-18T12:32:50;101058.59;;;9.73;76.22
52651;BME280;38537;47.226;39.702;2022-12-18T12:36:32;101058.47;;;9.93;77.32
52651;BME280;38537;47.226;39.702;2022-12-18T12:38:49;101053.66;;;10.04;76.42
52651;BME280;38537;47.226;39.702;2022-12-18T12:41:23;101038.72;;;9.79;75.61
52651;BME280;38537;47.226;39.702;2022-12-18T12:44:15;101041.78;;;9.88;76.03
52651;BME280;38537;47.226;39.702;2022-12-18T12:46:44;101065.13;;;9.97;75.47
52651;BME280;38537;47.226;39.702;2022-12-18T12:49:32;101035.44;;;9.72;76.69
52651;BME280;38537;47.226;39.702;2022-12-18T12:52:15;101074.75;;;9.71;76.28
52651;BME280;38537;47.226;39.702;2022-12-18T12:54:44;101081.25;;;9.51;76.43
52651;BME280;38537;47.226;39.702;2022-12-18T12:57:34;101077.09;;;9.43;77.66
52651;BME280;38537;47.226;39.702;2022-12-18T13:00:17;101082.59;;;9.63;77.19
52651;BME280;38537;47.226;39.702;2022-12-18T13:05:22;101099.34;;;9.58;76.81
52651;BME280;38537;47.226;39.702;2022-12-18T13:08:09;101106.84;;;9.68;77.97
52651;BME280;38537;47.226;39.702;2022-12-18T13:10:42;101076.53;;;9.46;77.06
52651;BME280;38537;47.226;39.702;2022-12-18T13:13:13;101105.75;;;9.59;76.71
52651;BME280;38537;47.226;39.702;2022-12-18T13:16:06;101103.28;;;9.52;77.62
52651;BME280;38537;47.226;39.702;2022-12-18T13:18:34;101098.03;;;9.25;76.50
52651;BME280;38537;47.226;39.702;2022-12-18T13:21:10;101107.50;;;9.30;76.97
52651;BME280;38537;47.226;39.702;2022-12-18T13:23:41;101117.25;;;9.17;76.87
52651;BME280;38537;47.226;39.702;2022-12-18T13:28:54;101122.28;;;9.30;77.98
52651;BME280;38537;47.226;39.702;2022-12-18T13:34:26;101133.44;;;9.20;78.65
52651;BME280;38537;47.226;39.702;2022-12-18T13:37:35;101141.22;;;9.18;77.64
52651;BME280;38537;47.226;39.702;2022-12-18T13:39:45;101119.78;;;8.88;77.60
52651;BME280;38537;47.226;39.702;2022-12-18T13:45:01;101132.34;;;8.80;77.72
52651;BME280;38537;47.226;39.702;2022-12-18T13:47:36;101166.31;;;9.03;78.32
52651;BME280;38537;47.226;39.702;2022-12-18T13:50:24;101153.22;;;9.03;79.13
52651;BME280;38537;47.226;39.702;2022-12-18T13:53:03;101161.84;;;9.02;78.15
52651;BME280;38537;47.226;39.702;2022-12-18T13:55:33;101162.97;;;9.01;77.91
52651;BME280;38537;47.226;39.702;2022-12-18T13:58:05;101155.72;;;9.00;78.27
52651;BME280;38537;47.226;39.702;2022-12-18T14:00:33;101157.13;;;9.02;77.85
52651;BME280;38537;47.226;39.702;2022-12-18T14:03:00;101157.69;;;8.99;77.97
52651;BME280;38537;47.226;39.702;2022-12-18T14:05:36;101161.00;;;8.96;78.54
52651;BME280;38537;47.226;39.702;2022-12-18T14:08:14;101176.63;;;9.02;78.46
52651;BME280;38537;47.226;39.702;2022-12-18T14:10:45;101162.97;;;9.01;77.88
52651;BME280;38537;47.226;39.702;2022-12-18T14:13:20;101180.50;;;9.11;77.56
52651;BME280;38537;47.226;39.702;2022-12-18T14:15:49;101154.88;;;8.94;77.00
52651;BME280;38537;47.226;39.702;2022-12-18T14:18:50;101183.31;;;9.06;77.18
52651;BME280;38537;47.226;39.702;2022-12-18T14:21:25;101182.47;;;9.16;76.97
52651;BME280;38537;47.226;39.702;2022-12-18T14:24:16;101185.81;;;9.08;76.79
52651;BME280;38537;47.226;39.702;2022-12-18T14:26:47;101188.03;;;8.90;76.65
52651;BME280;38537;47.226;39.702;2022-12-18T14:29:23;101192.78;;;9.00;76.66